SLCO/CIJ METAR and TAF weather

Enter ICAO airport designator
Station Type Date Time Source
SLCO METAR 2023/02/05 14:00 UTC NOAA

SLCO 051400Z 16004KT 9999 BKN005 OVC080 25/23 Q1016


Station Type Date Time Source
SLCO Decoded METAR 2023/02/05 14:00 UTC NOAA

Cobija, Bolivia (SLCO) 11-02S 068-47W 260M
Feb 05, 2023 - 09:00 AM EST / 2023.02.05 1400 UTC
Wind: from the SSE (160 degrees) at 5 MPH (4 KT):0
Visibility: greater than 7 mile(s):0
Sky conditions: overcast
Temperature: 77 F (25 C)
Dew Point: 73 F (23 C)
Relative Humidity: 88%
Pressure (altimeter): 30.00 in. Hg (1016 hPa)
ob: SLCO 051400Z 16004KT 9999 BKN005 OVC080 25/23 Q1016
cycle: 14

Station Type Date Time Source
SLCO TAF 2023/02/05 12:06 UTC NOAA

TAF TAF SLCO 051000Z 0512/0612 00000KT 9999 SCT015 BKN070 TX28/0520Z TN22/0610Z
BECMG 0514/0517 16006KT 7000 SHRA FEW023CB PROB30
TEMPO 0517/0520 3000 TSRA
BECMG 0522/0601 00000KT 9999 NSW SCT017 BKN070
TEMPO 0609/0612 3000 BR BKN003

Example: see airport list